Overview Statistics Trail Chart Weather Telemetry Raw packets
 

This is the latest recevied weather packets stored in our database for station/object KG7FOQ-13. If no packets are shown the sender has not sent any weather packets the latest 10 day(s).

<< 7 8 9 10 11 12 13 >>
Time Temp. Humidity Pressure Rain* Wind** Luminosity Snow
1788557589 17.78° C 59% 1013.2 hPa 0 mm - - -
1788557289 18.33° C 59% 1013 hPa 0 mm - - -
1788556988 18.33° C 58% 1013 hPa 0 mm - - -
1788556688 17.78° C 59% 1013 hPa 0 mm - - -
1788556387 18.33° C 57% 1013 hPa 0 mm - - -
1788556086 18.33° C 59% 1013 hPa 0 mm - - -
1788555785 17.78° C 61% 1013 hPa 0 mm - - -
1788555485 17.78° C 60% 1013 hPa 0 mm - - -
1788555184 18.33° C 58% 1013.2 hPa 0 mm - - -
1788554939 19.44° C 49% 1013.2 hPa 0 mm - - -
1788554884 19.44° C 49% 1013.2 hPa 0 mm - - -
1788554583 19.44° C 51% 1013.2 hPa 0 mm - - -
1788554283 18.89° C 49% 1013.3 hPa 0 mm - - -
1788553982 18.89° C 50% 1013.4 hPa 0 mm - - -
1788553682 18.89° C 50% 1013.4 hPa 0 mm - - -
1788553381 18.89° C 49% 1013.4 hPa 0 mm - - -
1788553081 18.33° C 52% 1013.4 hPa 0 mm - - -
1788552780 18.33° C 51% 1013.4 hPa 0 mm - - -
1788552480 18.89° C 51% 1013.5 hPa 0 mm - - -
1788552179 18.33° C 52% 1013.5 hPa 0 mm - - -
1788551879 18.33° C 53% 1013.5 hPa 0 mm - - -
1788551578 18.33° C 52% 1013.5 hPa 0 mm - - -
1788551278 17.78° C 53% 1013.6 hPa 0 mm - - -
1788550977 17.78° C 55% 1013.7 hPa 0 mm - - -
1788550751 17.22° C 54% 1013.8 hPa 0 mm - - -

* Rain latest hour (hover to see other rain measurements)
** Current wind speed in m/s (hover to see current wind gust speed)